Terminal Aerodrome Forecast
Issued by NWS Sterling, VA

Current Version | Previous Version | Graphics & Text | Print | Product List | Glossary On
Versions: 1 2 3 4 5 6 7 8 9 10 11 12 13 14 15 16 17 18 19 20 21 22 23 24
000
FTUS41 KLWX 172340
TAFIAD
TAF
KIAD 172340Z 1800/1906 12005KT P6SM FEW040 SCT250
     FM180600 00000KT 4SM BR FEW040 SCT150
     FM180800 VRB03KT 3SM BR SCT040 BKN070
     FM180900 VRB03KT 2SM BR BKN010 BKN040
     FM181500 03006KT P6SM BKN015 BKN040
     FM181800 05007KT P6SM BKN040
     FM182100 05007KT P6SM FEW045 SCT130=

USA.gov is the U.S. government's official web portal to all federal, state and local government web resources and services.